Time;durP1;ratioP1;P1;durP2;ratioP2;P2;SDS_P1;SDS_P2;PMS_P1;PMS_P2;Temp;Humidity;BMP_temperature;BMP_pressure;BME280_temperature;BME280_humidity;BME280_pressure;Samples;Min_cycle;Max_cycle;Signal;HPM_P1;HPM_P2
2024/03/26 00:02:24;;;;;;;3.45;1.25;;;7.40;99.90;;;;;;5011603;28;20049;-73
2024/03/26 00:04:50;;;;;;;4.38;1.23;;;7.40;99.90;;;;;;5011240;28;20045;-72
2024/03/26 00:07:16;;;;;;;6.25;1.05;;;7.30;99.90;;;;;;5011996;28;20046;-73
2024/03/26 00:09:42;;;;;;;6.47;2.00;;;7.40;99.90;;;;;;5009815;28;20072;-73
2024/03/26 00:12:08;;;;;;;6.18;1.10;;;7.40;99.90;;;;;;5010117;28;20033;-72
2024/03/26 00:14:33;;;;;;;4.97;1.48;;;7.30;99.90;;;;;;5010044;28;20427;-74
2024/03/26 00:16:59;;;;;;;6.10;1.17;;;7.30;99.90;;;;;;5009752;28;20033;-72
2024/03/26 00:19:24;;;;;;;7.13;1.38;;;7.20;99.90;;;;;;5012888;28;20022;-73
2024/03/26 00:21:50;;;;;;;7.70;1.13;;;7.30;99.90;;;;;;5015563;28;20036;-72
2024/03/26 00:24:15;;;;;;;3.40;1.13;;;7.30;99.90;;;;;;5012941;28;20038;-72
2024/03/26 00:26:41;;;;;;;7.32;1.10;;;7.20;99.90;;;;;;5016323;28;20041;-73
2024/03/26 00:29:07;;;;;;;3.63;0.90;;;7.30;99.90;;;;;;5009883;28;20045;-72
2024/03/26 00:31:35;;;;;;;8.98;1.02;;;7.30;99.90;;;;;;5009642;28;20726;-73
2024/03/26 00:34:01;;;;;;;8.95;1.88;;;7.20;99.90;;;;;;5012300;28;20111;-72
2024/03/26 00:36:27;;;;;;;6.18;1.40;;;7.20;99.90;;;;;;5025605;28;20072;-74
2024/03/26 00:38:53;;;;;;;9.05;2.03;;;7.10;99.90;;;;;;5022053;28;20038;-73
2024/03/26 00:41:19;;;;;;;7.90;1.23;;;7.10;99.90;;;;;;5022631;28;20044;-73
2024/03/26 00:43:45;;;;;;;6.38;0.93;;;7.10;99.90;;;;;;5023254;28;20030;-73
2024/03/26 00:46:11;;;;;;;3.35;1.30;;;7.10;99.90;;;;;;5017823;28;20089;-74
2024/03/26 00:48:36;;;;;;;12.07;1.00;;;7.10;99.90;;;;;;5015027;28;20030;-74
2024/03/26 00:51:02;;;;;;;7.50;0.93;;;7.10;99.90;;;;;;5014194;28;20049;-70
2024/03/26 00:53:28;;;;;;;5.13;1.40;;;7.10;99.90;;;;;;5020441;28;20519;-74
2024/03/26 00:55:53;;;;;;;3.30;1.08;;;7.00;99.90;;;;;;5002293;28;20801;-74
2024/03/26 00:58:19;;;;;;;8.20;2.22;;;7.00;99.90;;;;;;5016371;28;20467;-74
2024/03/26 01:00:44;;;;;;;5.10;1.50;;;7.10;99.90;;;;;;5019544;28;20034;-73
2024/03/26 01:03:10;;;;;;;5.32;0.95;;;7.00;99.90;;;;;;5014466;28;20044;-73
2024/03/26 01:05:36;;;;;;;6.95;1.40;;;7.00;99.90;;;;;;5020583;28;20041;-74
2024/03/26 01:08:01;;;;;;;4.82;0.93;;;7.00;99.90;;;;;;5013162;28;20037;-72
2024/03/26 01:10:27;;;;;;;11.18;2.95;;;7.00;99.90;;;;;;5020404;28;20744;-73
2024/03/26 01:12:52;;;;;;;10.45;2.55;;;7.00;99.90;;;;;;5015211;28;20510;-73
2024/03/26 01:15:18;;;;;;;3.25;0.80;;;7.00;99.90;;;;;;5010727;28;20121;-73
2024/03/26 01:17:45;;;;;;;2.65;1.30;;;7.00;99.90;;;;;;5017928;28;20052;-73
2024/03/26 01:20:11;;;;;;;3.97;1.05;;;7.00;99.90;;;;;;5019254;28;20411;-73
2024/03/26 01:22:38;;;;;;;8.35;1.48;;;6.90;99.90;;;;;;5020575;28;20041;-73
2024/03/26 01:25:05;;;;;;;11.38;1.50;;;6.90;99.90;;;;;;4985031;28;20427;-73
2024/03/26 01:27:31;;;;;;;5.10;0.95;;;6.90;99.90;;;;;;5013470;28;20046;-73
2024/03/26 01:29:57;;;;;;;11.43;1.83;;;6.80;99.90;;;;;;5011209;28;20597;-73
2024/03/26 01:32:22;;;;;;;7.75;1.85;;;6.90;99.90;;;;;;5007971;28;20514;-70
2024/03/26 01:34:51;;;;;;;7.75;1.30;;;6.90;99.90;;;;;;5008980;28;20415;-72
2024/03/26 01:37:16;;;;;;;10.13;1.30;;;6.90;99.90;;;;;;5003814;28;20125;-73
2024/03/26 01:39:42;;;;;;;6.57;1.15;;;6.90;99.90;;;;;;5006800;28;20128;-73
2024/03/26 01:42:07;;;;;;;7.30;1.75;;;6.90;99.90;;;;;;5010651;28;20036;-73
2024/03/26 01:44:33;;;;;;;8.68;1.38;;;6.80;99.90;;;;;;5005807;28;20033;-75
2024/03/26 01:46:59;;;;;;;2.28;0.88;;;6.80;99.90;;;;;;5006996;28;20034;-75
2024/03/26 01:49:25;;;;;;;4.63;1.10;;;6.80;99.90;;;;;;4990022;28;20661;-73
2024/03/26 01:51:52;;;;;;;9.60;2.38;;;6.70;99.90;;;;;;4992526;28;20130;-73
2024/03/26 01:54:17;;;;;;;3.17;0.80;;;6.70;99.90;;;;;;5014791;28;20103;-73
2024/03/26 01:56:44;;;;;;;4.35;1.38;;;6.70;99.90;;;;;;5010534;28;20026;-73
2024/03/26 01:59:11;;;;;;;8.00;1.42;;;6.70;99.90;;;;;;5007810;28;20519;-73
2024/03/26 02:01:37;;;;;;;5.50;1.42;;;6.70;99.90;;;;;;5010589;28;20496;-73
2024/03/26 02:04:03;;;;;;;5.45;1.20;;;6.70;99.90;;;;;;5012257;28;20033;-74
2024/03/26 02:06:29;;;;;;;13.52;3.75;;;6.70;99.90;;;;;;5014700;28;20046;-74
2024/03/26 02:08:57;;;;;;;4.32;1.67;;;6.60;99.90;;;;;;4994557;28;20056;-72
2024/03/26 02:11:24;;;;;;;6.30;1.88;;;6.60;99.90;;;;;;5006908;28;20042;-74
2024/03/26 02:13:49;;;;;;;3.15;0.80;;;6.60;99.90;;;;;;5008050;28;20058;-71
2024/03/26 02:16:15;;;;;;;2.63;1.00;;;6.60;99.90;;;;;;5009388;28;20380;-73
2024/03/26 02:18:40;;;;;;;9.57;1.63;;;6.60;99.90;;;;;;5009353;28;20184;-72
2024/03/26 02:21:06;;;;;;;6.75;1.70;;;6.50;99.90;;;;;;5008555;28;20029;-72
2024/03/26 02:23:32;;;;;;;3.50;1.25;;;6.50;99.90;;;;;;5008607;28;20559;-74
2024/03/26 02:25:57;;;;;;;9.38;1.85;;;6.50;99.90;;;;;;5013245;28;20033;-73
2024/03/26 02:28:23;;;;;;;7.85;1.42;;;6.50;99.90;;;;;;5010802;28;20089;-70
2024/03/26 02:30:48;;;;;;;4.95;1.40;;;6.40;99.90;;;;;;5010332;28;20038;-71
2024/03/26 02:33:14;;;;;;;7.65;1.88;;;6.40;99.90;;;;;;5011537;28;20059;-74
2024/03/26 02:35:40;;;;;;;6.55;1.70;;;6.40;99.90;;;;;;5009644;28;20049;-75
2024/03/26 02:38:06;;;;;;;5.15;0.93;;;6.40;99.90;;;;;;5012662;28;20029;-71
2024/03/26 02:40:32;;;;;;;5.47;1.25;;;6.40;99.90;;;;;;5007168;28;20037;-74
2024/03/26 02:42:59;;;;;;;4.82;1.10;;;6.40;99.90;;;;;;5013032;28;20056;-73
2024/03/26 02:45:25;;;;;;;6.13;1.58;;;6.40;99.90;;;;;;5008771;28;20041;-71
2024/03/26 02:47:50;;;;;;;4.78;1.30;;;6.40;99.90;;;;;;5007986;28;20037;-72
2024/03/26 02:50:16;;;;;;;4.47;0.90;;;6.40;99.90;;;;;;5005371;28;20037;-72
2024/03/26 02:52:41;;;;;;;5.43;1.85;;;6.30;99.90;;;;;;4990271;28;20037;-73
2024/03/26 02:55:07;;;;;;;5.68;1.75;;;6.30;99.90;;;;;;5009707;28;20553;-73
2024/03/26 02:57:33;;;;;;;5.80;1.33;;;6.30;99.90;;;;;;5006504;28;20518;-72
2024/03/26 02:59:58;;;;;;;8.80;1.83;;;6.30;99.90;;;;;;5008506;28;20052;-72
2024/03/26 03:02:24;;;;;;;5.28;1.17;;;6.20;99.90;;;;;;5008624;28;20711;-72
2024/03/26 03:04:50;;;;;;;8.95;1.27;;;6.30;99.90;;;;;;5012542;28;20433;-71
2024/03/26 03:07:15;;;;;;;6.97;1.35;;;6.20;99.90;;;;;;5007592;28;20536;-73
2024/03/26 03:09:44;;;;;;;6.57;1.80;;;6.20;99.90;;;;;;5018362;28;20038;-73
2024/03/26 03:12:10;;;;;;;7.05;1.30;;;6.20;99.90;;;;;;5011412;28;20045;-72
2024/03/26 03:14:35;;;;;;;9.15;1.33;;;6.20;99.90;;;;;;5010834;28;20042;-73
2024/03/26 03:17:01;;;;;;;29.85;2.22;;;6.20;99.90;;;;;;5012593;28;20045;-72
2024/03/26 03:19:27;;;;;;;2.88;1.13;;;6.20;99.90;;;;;;5010142;28;20038;-73
2024/03/26 03:21:52;;;;;;;3.25;1.02;;;6.20;99.90;;;;;;5010104;28;20060;-74
2024/03/26 03:24:18;;;;;;;8.80;1.98;;;6.20;99.90;;;;;;5011825;28;20046;-73
2024/03/26 03:26:43;;;;;;;6.88;1.10;;;6.20;99.90;;;;;;5012778;28;20039;-74
2024/03/26 03:29:09;;;;;;;6.78;1.23;;;6.20;99.90;;;;;;5012938;28;20049;-73
2024/03/26 03:31:34;;;;;;;11.68;2.33;;;6.30;99.90;;;;;;5010649;28;20058;-73
2024/03/26 03:34:00;;;;;;;8.43;1.90;;;6.30;99.90;;;;;;5008516;28;20116;-71
2024/03/26 03:36:26;;;;;;;6.47;1.30;;;6.20;99.90;;;;;;5013874;28;20044;-73
2024/03/26 03:38:51;;;;;;;8.32;1.83;;;6.30;99.90;;;;;;5010450;28;20042;-71
2024/03/26 03:41:17;;;;;;;9.15;1.77;;;6.20;99.90;;;;;;5015727;28;20038;-74
2024/03/26 03:43:43;;;;;;;6.68;1.38;;;6.20;99.90;;;;;;5010315;28;20129;-73
2024/03/26 03:46:08;;;;;;;9.88;2.22;;;6.20;99.90;;;;;;5013190;28;20120;-74
2024/03/26 03:48:34;;;;;;;5.75;1.02;;;6.10;99.90;;;;;;5011724;28;20099;-74
2024/03/26 03:50:59;;;;;;;7.15;1.42;;;6.20;99.90;;;;;;5014246;28;20037;-74
2024/03/26 03:53:25;;;;;;;7.97;1.58;;;6.20;99.90;;;;;;4987568;28;20499;-73
2024/03/26 03:55:52;;;;;;;4.88;1.73;;;6.30;99.90;;;;;;5014453;28;20057;-71
2024/03/26 03:58:17;;;;;;;3.58;1.15;;;6.30;99.90;;;;;;5006961;28;20029;-74
2024/03/26 04:00:43;;;;;;;3.97;1.20;;;6.30;99.90;;;;;;5015871;28;20038;-73
2024/03/26 04:03:08;;;;;;;6.15;1.42;;;6.20;99.90;;;;;;4993661;28;20153;-72
2024/03/26 04:05:38;;;;;;;13.30;1.75;;;6.30;99.90;;;;;;4994867;28;20465;-73
2024/03/26 04:08:04;;;;;;;2.97;1.00;;;6.30;99.90;;;;;;5014783;28;20045;-74
2024/03/26 04:10:30;;;;;;;4.50;0.88;;;6.30;99.90;;;;;;5003445;28;20045;-72
2024/03/26 04:12:56;;;;;;;12.35;1.40;;;6.30;99.90;;;;;;5015840;28;20044;-73
2024/03/26 04:15:22;;;;;;;3.70;1.58;;;6.30;99.90;;;;;;5011386;28;20375;-73
2024/03/26 04:17:51;;;;;;;7.22;1.70;;;6.30;99.90;;;;;;5006683;28;20148;-73
2024/03/26 04:20:17;;;;;;;7.28;2.05;;;6.40;99.90;;;;;;5012080;28;20029;-73
2024/03/26 04:22:46;;;;;;;5.72;1.25;;;6.30;99.90;;;;;;5015194;28;20025;-73
2024/03/26 04:25:13;;;;;;;9.02;1.73;;;6.30;99.90;;;;;;4994345;28;20542;-73
2024/03/26 04:27:38;;;;;;;8.93;1.05;;;6.30;99.90;;;;;;4997587;28;20494;-75
2024/03/26 04:30:06;;;;;;;2.45;1.20;;;6.30;99.90;;;;;;5013558;28;20033;-73
2024/03/26 04:32:32;;;;;;;5.45;0.85;;;6.20;99.90;;;;;;5013617;28;20038;-73
2024/03/26 04:34:58;;;;;;;5.80;1.05;;;6.20;99.90;;;;;;5010513;28;20022;-73
2024/03/26 04:37:24;;;;;;;6.32;1.25;;;6.10;99.90;;;;;;5006808;28;20041;-72
2024/03/26 04:39:49;;;;;;;7.20;1.88;;;6.10;99.90;;;;;;5018172;28;20037;-73
2024/03/26 04:42:15;;;;;;;4.78;1.10;;;6.00;99.90;;;;;;5012085;28;20044;-72
2024/03/26 04:44:40;;;;;;;6.82;1.23;;;6.10;99.90;;;;;;5016308;28;20034;-74
2024/03/26 04:47:06;;;;;;;9.13;2.05;;;6.10;99.90;;;;;;5014939;28;20544;-71
2024/03/26 04:49:31;;;;;;;4.10;1.70;;;6.00;99.90;;;;;;5014351;28;20526;-73
2024/03/26 04:51:57;;;;;;;5.57;1.20;;;6.00;99.90;;;;;;5011476;28;20041;-72
2024/03/26 04:54:23;;;;;;;4.75;1.30;;;6.00;99.90;;;;;;5011303;28;20037;-74
2024/03/26 04:56:48;;;;;;;4.53;1.42;;;5.90;99.90;;;;;;5006334;28;20544;-71
2024/03/26 04:59:14;;;;;;;8.45;2.00;;;5.90;99.90;;;;;;5000336;28;20121;-70
2024/03/26 05:01:39;;;;;;;8.45;2.10;;;5.90;99.90;;;;;;5009711;28;20045;-75
2024/03/26 05:04:05;;;;;;;7.40;2.05;;;5.90;99.90;;;;;;4990502;28;20053;-72
2024/03/26 05:06:31;;;;;;;4.43;0.98;;;5.90;99.90;;;;;;5003496;28;20029;-73
2024/03/26 05:08:56;;;;;;;6.03;1.30;;;5.90;99.90;;;;;;5010875;28;20037;-72
2024/03/26 05:11:22;;;;;;;4.80;1.25;;;5.80;99.90;;;;;;5008039;28;20025;-76
2024/03/26 05:13:48;;;;;;;5.70;1.10;;;5.80;99.90;;;;;;5001402;28;20049;-73
2024/03/26 05:16:13;;;;;;;7.57;1.25;;;5.70;99.90;;;;;;4982151;28;20117;-72
2024/03/26 05:18:39;;;;;;;3.97;1.20;;;5.70;99.90;;;;;;5006905;28;20041;-73
2024/03/26 05:21:04;;;;;;;6.22;1.55;;;5.70;99.90;;;;;;5005440;28;20041;-73
2024/03/26 05:23:30;;;;;;;4.43;1.35;;;5.70;99.90;;;;;;5010300;28;20044;-73
2024/03/26 05:25:56;;;;;;;5.32;1.50;;;5.70;99.90;;;;;;5002849;28;20038;-72
2024/03/26 05:28:21;;;;;;;8.15;1.38;;;5.70;99.90;;;;;;5017180;28;20042;-72
2024/03/26 05:30:48;;;;;;;6.88;1.45;;;5.70;99.90;;;;;;5006351;28;20403;-74
2024/03/26 05:33:14;;;;;;;6.38;1.38;;;5.70;99.90;;;;;;5005576;28;20072;-74
2024/03/26 05:35:42;;;;;;;4.05;1.42;;;5.70;99.90;;;;;;5006827;28;20464;-72
2024/03/26 05:38:08;;;;;;;11.55;1.27;;;5.70;99.90;;;;;;5004584;28;20052;-72
2024/03/26 05:40:34;;;;;;;3.22;1.00;;;5.70;99.90;;;;;;5006856;28;20495;-73
2024/03/26 05:43:00;;;;;;;5.75;1.48;;;5.70;99.90;;;;;;5003467;28;20034;-72
2024/03/26 05:45:26;;;;;;;7.80;1.35;;;5.70;99.90;;;;;;5007051;28;20367;-71
2024/03/26 05:47:52;;;;;;;2.63;1.63;;;5.70;99.90;;;;;;5006596;28;20050;-72
2024/03/26 05:50:18;;;;;;;3.72;1.20;;;5.70;99.90;;;;;;5017345;28;20037;-69
2024/03/26 05:52:43;;;;;;;3.22;1.38;;;5.70;99.90;;;;;;5003932;28;20045;-73
2024/03/26 05:55:09;;;;;;;3.67;1.23;;;5.70;99.90;;;;;;5008297;28;20462;-73
2024/03/26 05:57:35;;;;;;;5.32;1.30;;;5.70;99.90;;;;;;4980160;28;20033;-73
2024/03/26 06:00:01;;;;;;;2.05;0.85;;;5.70;99.90;;;;;;5001379;28;20065;-73
2024/03/26 06:02:26;;;;;;;6.47;1.58;;;5.70;99.90;;;;;;5005449;28;20069;-71
2024/03/26 06:04:52;;;;;;;5.80;1.65;;;5.70;99.90;;;;;;5002825;28;20500;-73
2024/03/26 06:07:17;;;;;;;5.47;1.83;;;5.80;99.90;;;;;;4999822;28;20045;-73
2024/03/26 06:09:43;;;;;;;5.78;1.17;;;5.80;99.90;;;;;;5007169;28;20099;-73
2024/03/26 06:12:09;;;;;;;3.72;1.13;;;5.90;99.90;;;;;;5007143;28;20041;-72
2024/03/26 06:14:35;;;;;;;8.45;1.65;;;6.00;99.90;;;;;;4998436;28;20042;-73
2024/03/26 06:17:00;;;;;;;6.40;1.77;;;6.10;99.90;;;;;;4999578;28;20058;-74
2024/03/26 06:19:26;;;;;;;4.18;0.95;;;6.10;99.90;;;;;;5003251;28;20069;-74
2024/03/26 06:21:52;;;;;;;5.75;1.48;;;6.20;99.90;;;;;;4999319;28;20081;-73
2024/03/26 06:24:18;;;;;;;9.23;2.03;;;6.20;99.90;;;;;;5001746;28;20030;-71
2024/03/26 06:26:43;;;;;;;7.43;1.17;;;6.30;99.90;;;;;;5001962;28;20091;-72
2024/03/26 06:29:10;;;;;;;5.07;1.33;;;6.30;99.90;;;;;;4998549;28;20034;-72
2024/03/26 06:31:36;;;;;;;5.28;1.20;;;6.30;99.90;;;;;;5002740;28;20030;-74
2024/03/26 06:34:01;;;;;;;7.10;1.10;;;6.40;99.90;;;;;;4999056;28;20042;-73
2024/03/26 06:36:27;;;;;;;4.10;1.20;;;6.50;99.90;;;;;;5002713;28;20038;-73
2024/03/26 06:38:53;;;;;;;9.95;2.17;;;6.50;99.90;;;;;;5000324;28;20038;-73
2024/03/26 06:41:19;;;;;;;7.22;1.45;;;6.50;99.90;;;;;;5005046;28;20040;-70
2024/03/26 06:43:44;;;;;;;4.15;1.45;;;6.60;99.90;;;;;;4999718;28;20033;-73
2024/03/26 06:46:10;;;;;;;6.75;2.10;;;6.70;99.90;;;;;;4999224;28;20073;-72
2024/03/26 06:48:36;;;;;;;6.47;1.60;;;6.80;99.90;;;;;;5004070;28;20084;-73
2024/03/26 06:51:02;;;;;;;6.40;1.20;;;6.90;99.90;;;;;;4998600;28;20046;-72
2024/03/26 06:53:27;;;;;;;6.57;1.33;;;7.00;99.90;;;;;;4993300;28;20049;-73
2024/03/26 06:55:53;;;;;;;9.05;1.38;;;7.20;99.90;;;;;;4995909;28;20038;-72
2024/03/26 06:58:19;;;;;;;6.10;0.90;;;7.30;99.90;;;;;;4992723;28;20042;-74
2024/03/26 07:00:45;;;;;;;3.88;1.17;;;7.40;99.90;;;;;;4990095;28;20041;-72
2024/03/26 07:03:11;;;;;;;5.80;1.15;;;7.50;99.90;;;;;;4987801;28;20038;-71
2024/03/26 07:05:37;;;;;;;7.57;0.77;;;7.50;99.90;;;;;;4991830;28;20423;-74
2024/03/26 07:08:03;;;;;;;4.63;2.33;;;7.60;99.90;;;;;;5007679;28;20042;-72
2024/03/26 07:10:29;;;;;;;4.18;1.10;;;7.70;99.90;;;;;;5007959;28;20042;-73
2024/03/26 07:12:54;;;;;;;2.53;0.98;;;7.80;99.90;;;;;;5003172;28;20037;-73
2024/03/26 07:15:20;;;;;;;9.10;2.53;;;7.80;99.90;;;;;;5008831;28;20423;-73
2024/03/26 07:17:46;;;;;;;7.88;1.25;;;7.90;99.90;;;;;;5004604;28;20068;-73
2024/03/26 07:20:11;;;;;;;3.40;1.10;;;7.90;99.90;;;;;;5003483;28;20042;-69
2024/03/26 07:22:38;;;;;;;5.15;1.40;;;8.00;99.90;;;;;;5008138;28;20033;-72
2024/03/26 07:25:05;;;;;;;10.68;1.30;;;8.10;99.90;;;;;;5011176;28;20041;-73
2024/03/26 07:27:31;;;;;;;4.25;1.48;;;8.10;99.90;;;;;;4982203;28;20096;-72
2024/03/26 07:29:57;;;;;;;3.72;1.13;;;8.30;99.90;;;;;;4993849;28;20034;-71
2024/03/26 07:32:23;;;;;;;3.03;0.80;;;8.30;99.90;;;;;;5005379;28;20038;-73
2024/03/26 07:34:48;;;;;;;5.80;1.50;;;8.30;99.90;;;;;;5005298;28;20036;-71
2024/03/26 07:37:15;;;;;;;4.20;1.02;;;8.40;99.90;;;;;;5005557;28;20438;-70
2024/03/26 07:39:40;;;;;;;5.00;1.30;;;8.50;99.90;;;;;;5008103;28;20088;-73
2024/03/26 07:42:06;;;;;;;4.18;1.13;;;8.50;99.90;;;;;;5007177;28;20041;-72
2024/03/26 07:44:32;;;;;;;2.53;1.02;;;8.60;99.90;;;;;;5004833;28;20908;-71
2024/03/26 07:46:58;;;;;;;4.35;1.58;;;8.70;99.90;;;;;;5006285;28;20034;-72
2024/03/26 07:49:24;;;;;;;5.63;1.17;;;8.70;99.90;;;;;;5008445;28;20033;-73
2024/03/26 07:51:51;;;;;;;8.52;1.90;;;8.80;99.90;;;;;;5005195;28;20376;-73
2024/03/26 07:54:19;;;;;;;7.72;1.30;;;8.80;99.90;;;;;;4998117;28;20667;-73
2024/03/26 07:56:45;;;;;;;6.68;1.63;;;8.80;99.90;;;;;;5008427;28;20053;-73
2024/03/26 07:59:10;;;;;;;4.60;0.80;;;8.90;99.90;;;;;;4985544;28;20507;-73
2024/03/26 08:01:36;;;;;;;3.78;1.08;;;8.90;99.90;;;;;;4988679;28;20486;-73
2024/03/26 08:04:02;;;;;;;5.45;1.30;;;8.90;99.90;;;;;;4996906;28;20044;-73
2024/03/26 08:06:27;;;;;;;8.45;1.35;;;8.90;99.90;;;;;;5005556;28;20040;-73
2024/03/26 08:08:53;;;;;;;4.45;1.33;;;9.00;99.90;;;;;;4985233;28;20061;-72
2024/03/26 08:11:19;;;;;;;3.67;1.35;;;9.00;99.90;;;;;;5005328;28;20034;-70
2024/03/26 08:13:45;;;;;;;5.70;0.90;;;8.90;99.90;;;;;;5004048;28;20044;-73
2024/03/26 08:16:10;;;;;;;7.40;1.17;;;8.90;99.90;;;;;;4979415;28;20400;-73
2024/03/26 08:18:36;;;;;;;3.58;1.10;;;8.90;99.90;;;;;;5001698;28;20123;-73
2024/03/26 08:21:03;;;;;;;3.05;1.20;;;9.00;99.90;;;;;;4999688;28;20042;-73
2024/03/26 08:23:28;;;;;;;6.60;1.70;;;9.00;99.90;;;;;;5000243;28;20495;-73
2024/03/26 08:25:55;;;;;;;3.97;1.15;;;9.00;99.90;;;;;;4999561;28;20092;-73
2024/03/26 08:28:21;;;;;;;6.53;1.40;;;9.10;99.90;;;;;;4999202;28;20029;-71
2024/03/26 08:30:47;;;;;;;3.80;1.52;;;9.20;99.90;;;;;;4978041;28;20041;-73
2024/03/26 08:33:13;;;;;;;4.32;1.40;;;9.20;99.90;;;;;;4999177;28;20093;-73
2024/03/26 08:35:40;;;;;;;7.00;1.60;;;9.20;99.90;;;;;;4998136;28;20038;-74
2024/03/26 08:38:06;;;;;;;4.05;1.40;;;9.30;99.90;;;;;;4997236;28;20058;-73
2024/03/26 08:40:31;;;;;;;4.63;1.30;;;9.30;99.90;;;;;;4998015;28;20044;-74
2024/03/26 08:42:57;;;;;;;9.95;1.05;;;9.40;99.90;;;;;;4999118;28;20037;-73
2024/03/26 08:45:23;;;;;;;2.25;1.00;;;9.40;99.90;;;;;;4998459;28;20061;-72
2024/03/26 08:47:49;;;;;;;2.47;1.00;;;9.40;99.90;;;;;;4999888;28;20062;-72
2024/03/26 08:50:14;;;;;;;2.83;1.08;;;9.40;99.90;;;;;;5000759;28;20033;-73
2024/03/26 08:52:40;;;;;;;3.55;1.10;;;9.40;99.90;;;;;;5001426;28;20456;-74
2024/03/26 08:55:06;;;;;;;4.13;1.20;;;9.50;99.90;;;;;;4998254;28;20038;-74
2024/03/26 08:57:31;;;;;;;3.53;1.20;;;9.60;99.90;;;;;;5002266;28;20049;-74
2024/03/26 08:59:57;;;;;;;5.55;1.23;;;9.70;99.90;;;;;;5009814;28;20048;-73
2024/03/26 09:02:23;;;;;;;2.63;1.27;;;9.70;99.90;;;;;;5005453;28;20099;-73
2024/03/26 09:04:49;;;;;;;6.57;1.52;;;9.80;99.90;;;;;;5002772;28;20042;-73
2024/03/26 09:07:15;;;;;;;2.78;1.00;;;9.90;99.90;;;;;;5005216;28;20092;-72
2024/03/26 09:09:41;;;;;;;3.78;0.75;;;10.10;99.90;;;;;;5010030;28;20037;-73
2024/03/26 09:12:07;;;;;;;3.28;1.33;;;10.10;99.90;;;;;;4977925;28;20121;-72
2024/03/26 09:14:32;;;;;;;4.40;0.88;;;10.20;99.90;;;;;;5001487;28;20096;-73
2024/03/26 09:16:58;;;;;;;2.33;0.85;;;10.20;99.90;;;;;;5001704;28;20043;-73
2024/03/26 09:19:23;;;;;;;2.75;1.10;;;10.10;99.90;;;;;;5001750;28;20030;-72
2024/03/26 09:21:49;;;;;;;4.28;1.00;;;10.10;99.90;;;;;;5003334;28;20069;-70
2024/03/26 09:24:14;;;;;;;5.45;0.95;;;10.20;99.90;;;;;;5007968;28;20037;-73
2024/03/26 09:26:40;;;;;;;4.63;1.02;;;10.20;99.90;;;;;;4996512;28;20030;-73
2024/03/26 09:29:06;;;;;;;3.53;1.10;;;10.40;99.90;;;;;;5004421;28;20041;-71
2024/03/26 09:31:31;;;;;;;3.08;1.10;;;10.40;99.90;;;;;;5006826;28;20059;-73
2024/03/26 09:33:57;;;;;;;10.90;1.63;;;10.40;99.90;;;;;;5003510;28;20064;-73
2024/03/26 09:36:22;;;;;;;8.40;1.60;;;10.40;99.90;;;;;;5007560;28;20045;-73
2024/03/26 09:38:49;;;;;;;1.92;0.80;;;10.50;99.90;;;;;;5005355;28;20037;-73
2024/03/26 09:41:19;;;;;;;3.42;1.00;;;10.50;99.90;;;;;;5004243;28;20040;-73
2024/03/26 09:43:45;;;;;;;3.83;1.27;;;10.40;99.90;;;;;;4982816;28;20038;-73
2024/03/26 09:46:12;;;;;;;4.47;0.85;;;10.40;99.90;;;;;;5004655;28;20046;-73
2024/03/26 09:48:38;;;;;;;4.38;0.90;;;10.50;99.90;;;;;;5006422;28;20046;-73
2024/03/26 09:51:06;;;;;;;4.07;1.20;;;10.60;99.90;;;;;;5006235;28;20052;-73
2024/03/26 09:53:33;;;;;;;4.85;1.05;;;10.70;99.90;;;;;;4991344;28;20155;-71
2024/03/26 09:55:59;;;;;;;6.03;1.10;;;10.80;99.90;;;;;;5004634;28;20049;-74
2024/03/26 09:58:25;;;;;;;3.20;1.13;;;10.80;99.90;;;;;;5007324;28;20050;-74
2024/03/26 10:00:50;;;;;;;5.30;1.25;;;10.80;99.90;;;;;;5004810;28;20419;-71
2024/03/26 10:03:20;;;;;;;4.43;1.35;;;10.80;99.90;;;;;;5005341;28;20034;-73
2024/03/26 10:05:49;;;;;;;6.60;0.98;;;10.70;99.90;;;;;;5006650;28;20045;-70
2024/03/26 10:08:14;;;;;;;6.28;1.02;;;10.70;99.90;;;;;;5004552;28;20035;-73
2024/03/26 10:10:43;;;;;;;3.67;1.40;;;10.60;99.90;;;;;;5003472;28;20037;-73
2024/03/26 10:13:10;;;;;;;2.97;0.80;;;10.60;99.90;;;;;;4999924;28;20084;-72
2024/03/26 10:15:38;;;;;;;5.32;1.42;;;10.60;99.90;;;;;;5004962;28;20083;-72
2024/03/26 10:18:08;;;;;;;2.03;0.80;;;10.70;99.90;;;;;;4986847;28;20415;-74
2024/03/26 10:20:33;;;;;;;2.80;1.00;;;10.70;99.90;;;;;;5010425;28;20030;-73
2024/03/26 10:23:08;;;;;;;2.75;0.88;;;10.70;99.90;;;;;;5002487;28;20030;-73
2024/03/26 10:25:34;;;;;;;4.68;1.17;;;10.70;99.90;;;;;;5007651;28;20048;-73
2024/03/26 10:28:01;;;;;;;4.38;1.13;;;10.70;99.90;;;;;;5003796;28;20033;-73
2024/03/26 10:30:27;;;;;;;4.68;1.50;;;10.70;99.90;;;;;;5002105;28;20133;-72
2024/03/26 10:32:58;;;;;;;4.25;0.85;;;10.80;99.90;;;;;;5006262;28;20096;-72
2024/03/26 10:35:26;;;;;;;3.15;1.30;;;10.70;99.90;;;;;;4992796;28;20041;-73
2024/03/26 10:37:56;;;;;;;2.75;1.00;;;10.70;99.90;;;;;;4991764;28;20722;-73
2024/03/26 10:40:28;;;;;;;4.10;1.90;;;10.90;99.90;;;;;;5007476;28;20137;-73
2024/03/26 10:42:57;;;;;;;5.55;1.00;;;10.80;99.90;;;;;;5005932;28;20048;-70
2024/03/26 10:45:23;;;;;;;3.03;1.30;;;10.90;99.90;;;;;;4988773;28;20594;-72
2024/03/26 10:47:49;;;;;;;3.88;1.38;;;10.90;99.90;;;;;;5006392;28;20105;-72
2024/03/26 10:50:16;;;;;;;2.75;1.13;;;10.80;99.90;;;;;;5002594;28;20129;-72
2024/03/26 10:52:42;;;;;;;2.88;1.25;;;10.90;99.90;;;;;;5003272;28;20030;-73
2024/03/26 10:55:08;;;;;;;7.45;1.35;;;10.90;99.90;;;;;;5007786;28;20095;-73
2024/03/26 10:57:37;;;;;;;4.40;1.10;;;10.90;99.90;;;;;;5006557;28;20034;-74
2024/03/26 11:00:10;;;;;;;6.35;1.48;;;10.90;99.90;;;;;;4984002;28;20049;-74
2024/03/26 11:02:37;;;;;;;5.18;1.23;;;10.90;99.90;;;;;;5005618;28;20057;-72
2024/03/26 11:05:04;;;;;;;4.15;0.90;;;11.00;99.90;;;;;;5007123;28;20038;-73
2024/03/26 11:07:33;;;;;;;3.95;1.40;;;11.10;99.90;;;;;;5005301;28;20041;-74
2024/03/26 11:10:17;;;;;;;3.95;1.20;;;11.00;99.90;;;;;;4998681;28;20478;-71
2024/03/26 11:12:47;;;;;;;2.35;1.52;;;11.10;99.90;;;;;;5001096;28;20025;-73
2024/03/26 11:15:27;;;;;;;8.02;1.60;;;11.10;99.90;;;;;;4983762;28;20611;-73
2024/03/26 11:17:53;;;;;;;2.73;1.30;;;11.10;99.90;;;;;;4997143;28;20056;-72
2024/03/26 11:20:21;;;;;;;4.50;1.30;;;11.10;99.90;;;;;;5004322;28;20053;-72
2024/03/26 11:22:57;;;;;;;3.03;1.55;;;11.10;99.90;;;;;;5003565;28;20038;-72
2024/03/26 11:25:26;;;;;;;3.75;1.30;;;11.20;99.90;;;;;;5003281;28;20044;-70
2024/03/26 11:27:53;;;;;;;3.25;1.17;;;11.30;99.90;;;;;;5000203;28;20118;-71
2024/03/26 11:30:20;;;;;;;13.30;1.98;;;11.40;99.90;;;;;;5004088;28;20037;-75
2024/03/26 11:32:46;;;;;;;2.47;1.30;;;11.40;99.90;;;;;;5001127;28;20082;-72
2024/03/26 11:35:26;;;;;;;6.07;1.52;;;11.40;99.90;;;;;;5000269;28;20037;-71
2024/03/26 11:37:54;;;;;;;4.30;1.92;;;11.40;99.90;;;;;;4995936;28;20045;-71
2024/03/26 11:40:20;;;;;;;3.00;1.52;;;11.40;99.90;;;;;;5003898;28;20046;-72
2024/03/26 11:42:47;;;;;;;3.40;0.80;;;11.40;99.90;;;;;;5001868;28;20557;-72
2024/03/26 11:45:14;;;;;;;5.97;1.65;;;11.50;99.90;;;;;;4999708;28;20034;-73
2024/03/26 11:47:40;;;;;;;4.13;1.08;;;11.50;99.90;;;;;;5004384;28;20525;-72
2024/03/26 11:50:07;;;;;;;4.15;1.50;;;11.60;99.90;;;;;;5001408;28;20137;-72
2024/03/26 11:52:33;;;;;;;5.50;1.60;;;11.60;99.90;;;;;;4994682;28;20046;-73
2024/03/26 11:55:00;;;;;;;5.40;1.42;;;11.60;99.90;;;;;;4997498;28;20468;-74
2024/03/26 11:57:26;;;;;;;4.32;1.67;;;11.60;99.90;;;;;;5000923;28;20100;-75
2024/03/26 11:59:53;;;;;;;4.47;1.13;;;11.60;99.90;;;;;;5001762;28;20071;-71
2024/03/26 12:02:18;;;;;;;7.05;1.20;;;11.60;99.90;;;;;;4997388;28;20033;-71
2024/03/26 12:04:44;;;;;;;5.22;1.40;;;11.70;99.90;;;;;;5003759;28;20041;-72
2024/03/26 12:07:15;;;;;;;4.50;1.88;;;11.70;99.90;;;;;;4982906;28;20615;-72
2024/03/26 12:09:41;;;;;;;3.67;1.63;;;11.80;99.90;;;;;;5002841;28;20125;-75
2024/03/26 12:12:10;;;;;;;2.22;1.08;;;11.80;99.90;;;;;;4992723;28;20058;-72
2024/03/26 12:14:35;;;;;;;9.55;1.30;;;11.80;99.90;;;;;;4998274;28;20403;-71
2024/03/26 12:17:02;;;;;;;6.20;1.55;;;11.90;99.90;;;;;;4998755;28;20037;-73
2024/03/26 12:19:29;;;;;;;8.10;1.38;;;12.00;99.90;;;;;;4998880;28;20022;-72
2024/03/26 12:21:54;;;;;;;4.47;1.20;;;12.20;99.90;;;;;;4999534;28;20046;-72
2024/03/26 12:24:20;;;;;;;3.72;1.00;;;12.20;99.90;;;;;;4994834;28;20034;-72
2024/03/26 12:26:46;;;;;;;9.02;1.38;;;12.30;99.90;;;;;;5000076;28;20807;-73
2024/03/26 12:29:11;;;;;;;3.10;1.33;;;12.40;99.90;;;;;;4979894;28;20522;-73
2024/03/26 12:31:37;;;;;;;3.22;1.10;;;12.50;99.90;;;;;;5001672;28;20049;-72
2024/03/26 12:34:10;;;;;;;3.63;1.17;;;12.60;99.90;;;;;;4982243;28;20052;-75
2024/03/26 12:36:36;;;;;;;3.65;0.82;;;12.60;99.90;;;;;;4999455;28;20034;-74
2024/03/26 12:39:03;;;;;;;1.92;0.90;;;12.50;99.90;;;;;;5003879;28;20088;-71
2024/03/26 12:41:29;;;;;;;3.58;1.00;;;12.40;99.90;;;;;;5003983;28;20065;-74
2024/03/26 12:43:54;;;;;;;3.60;1.27;;;12.50;99.90;;;;;;4998094;28;20111;-74
2024/03/26 12:46:20;;;;;;;3.20;1.20;;;12.50;99.90;;;;;;5001873;28;20042;-72
2024/03/26 12:48:46;;;;;;;4.60;1.25;;;12.50;99.90;;;;;;5005624;28;20034;-71